Isla De Los Estados, Argentina
Current Conditions -  °F | °C
As of 7:00 AM on Thursday 23 Oct 2014 (Local Time) from SAWH Reporting Station
Heavy Snow Heavy Snow  
Wind Chill: 19°   Ceiling: 2000
Heat Index: 34°   Visibility: 1.8mi
Dew Point: 32°   Wind: 38mph
Humidity: 93%   Direction: 230°SW
Pressure: 29.53"   Gusts: 60mph
Location:  54.93°S, 64.65°W
Report Text: SAWH 231000Z 23033G52KT 3000 +SN BKN020BKN035 01/00 Q1000
Loading
Personal Weather Stations






























Interactive Weather Map
Tropical Storm Tracking
New forecast layout! Learn more

10-Day Weather Forecast

Advertisements
Track Severe Weather on mobile